KELY/ELY METAR and TAF weather

Enter ICAO airport designator
Station Type Date Time Source
KELY METAR 2019/02/22 21:53 UTC NOAA

KELY 222153Z AUTO 35011KT CLR M05/M15 A2989 RMK AO2 SLP171 T10501150 $


Station Type Date Time Source
KELY Decoded METAR 2019/02/22 21:53 UTC NOAA

ELY AIRPORT (YELLAND FIELD), NV, United States (KELY) 39-18N 114-51W 1906M
Feb 22, 2019 - 04:53 PM EST / 2019.02.22 2153 UTC
Wind: from the N (350 degrees) at 13 MPH (11 KT):0
Sky conditions: clear
Temperature: 23.0 F (-5.0 C)
Windchill: 10 F (-12 C):1
Dew Point: 5.0 F (-15.0 C)
Relative Humidity: 45%
Pressure (altimeter): 29.89 in. Hg (1012 hPa)
ob: KELY 222153Z AUTO 35011KT CLR M05/M15 A2989 RMK AO2 SLP171 T10501150
cycle: 22

Station Type Date Time Source
KELY TAF 2019/02/22 18:36 UTC NOAA

TAF KELY 221733Z 2218/2318 35010KT P6SM SKC
FM230300 16010KT P6SM SKC


Example: see airport list